sensor_id;sensor_type;location;lat;lon;timestamp;P1;durP1;ratioP1;P2;durP2;ratioP2
48203;SDS011;33994;50.998;5.864;2024-03-06T00:00:46;6.63;;;2.85;;
48203;SDS011;33994;50.998;5.864;2024-03-06T00:03:51;4.68;;;2.55;;
48203;SDS011;33994;50.998;5.864;2024-03-06T00:06:54;6.85;;;2.88;;
48203;SDS011;33994;50.998;5.864;2024-03-06T00:09:57;4.57;;;2.28;;
48203;SDS011;33994;50.998;5.864;2024-03-06T00:13:00;3.25;;;2.55;;
48203;SDS011;33994;50.998;5.864;2024-03-06T00:16:04;7.57;;;2.72;;
48203;SDS011;33994;50.998;5.864;2024-03-06T00:19:09;3.53;;;2.65;;
48203;SDS011;33994;50.998;5.864;2024-03-06T00:22:12;4.80;;;2.88;;
48203;SDS011;33994;50.998;5.864;2024-03-06T00:25:15;4.63;;;2.78;;
48203;SDS011;33994;50.998;5.864;2024-03-06T00:28:18;4.43;;;2.88;;
48203;SDS011;33994;50.998;5.864;2024-03-06T00:31:22;5.47;;;3.03;;
48203;SDS011;33994;50.998;5.864;2024-03-06T00:34:26;5.30;;;2.92;;
48203;SDS011;33994;50.998;5.864;2024-03-06T00:37:29;4.55;;;3.17;;
48203;SDS011;33994;50.998;5.864;2024-03-06T00:40:32;5.72;;;3.53;;
48203;SDS011;33994;50.998;5.864;2024-03-06T00:43:35;6.15;;;2.90;;
48203;SDS011;33994;50.998;5.864;2024-03-06T00:46:39;6.15;;;3.25;;
48203;SDS011;33994;50.998;5.864;2024-03-06T00:49:43;7.55;;;3.60;;
48203;SDS011;33994;50.998;5.864;2024-03-06T00:52:46;7.57;;;3.83;;
48203;SDS011;33994;50.998;5.864;2024-03-06T00:55:50;8.95;;;4.00;;
48203;SDS011;33994;50.998;5.864;2024-03-06T00:58:53;5.35;;;3.17;;
48203;SDS011;33994;50.998;5.864;2024-03-06T01:01:56;7.22;;;4.00;;
48203;SDS011;33994;50.998;5.864;2024-03-06T01:05:02;6.07;;;3.97;;
48203;SDS011;33994;50.998;5.864;2024-03-06T01:08:05;6.68;;;3.85;;
48203;SDS011;33994;50.998;5.864;2024-03-06T01:11:09;8.32;;;4.10;;
48203;SDS011;33994;50.998;5.864;2024-03-06T01:14:12;6.95;;;3.63;;
48203;SDS011;33994;50.998;5.864;2024-03-06T01:17:15;7.32;;;3.92;;
48203;SDS011;33994;50.998;5.864;2024-03-06T01:20:19;6.63;;;3.92;;
48203;SDS011;33994;50.998;5.864;2024-03-06T01:23:22;7.40;;;4.13;;
48203;SDS011;33994;50.998;5.864;2024-03-06T01:26:25;8.15;;;4.35;;
48203;SDS011;33994;50.998;5.864;2024-03-06T01:29:29;6.93;;;4.43;;
48203;SDS011;33994;50.998;5.864;2024-03-06T01:32:33;8.30;;;4.10;;
48203;SDS011;33994;50.998;5.864;2024-03-06T01:35:37;8.13;;;4.20;;
48203;SDS011;33994;50.998;5.864;2024-03-06T01:38:40;6.72;;;4.63;;
48203;SDS011;33994;50.998;5.864;2024-03-06T01:41:46;5.85;;;4.43;;
48203;SDS011;33994;50.998;5.864;2024-03-06T01:44:50;5.97;;;3.85;;
48203;SDS011;33994;50.998;5.864;2024-03-06T01:47:53;7.70;;;4.65;;
48203;SDS011;33994;50.998;5.864;2024-03-06T01:50:58;10.90;;;4.50;;
48203;SDS011;33994;50.998;5.864;2024-03-06T01:54:04;9.70;;;4.45;;
48203;SDS011;33994;50.998;5.864;2024-03-06T01:57:08;7.60;;;4.18;;
48203;SDS011;33994;50.998;5.864;2024-03-06T02:00:13;9.05;;;4.10;;
48203;SDS011;33994;50.998;5.864;2024-03-06T02:03:16;6.00;;;4.55;;
48203;SDS011;33994;50.998;5.864;2024-03-06T02:06:21;9.95;;;4.82;;
48203;SDS011;33994;50.998;5.864;2024-03-06T02:09:25;6.30;;;4.30;;
48203;SDS011;33994;50.998;5.864;2024-03-06T02:12:28;8.88;;;4.47;;
48203;SDS011;33994;50.998;5.864;2024-03-06T02:15:31;7.55;;;4.40;;
48203;SDS011;33994;50.998;5.864;2024-03-06T02:18:34;12.63;;;4.78;;
48203;SDS011;33994;50.998;5.864;2024-03-06T02:21:39;8.40;;;4.57;;
48203;SDS011;33994;50.998;5.864;2024-03-06T02:24:42;6.93;;;4.05;;
48203;SDS011;33994;50.998;5.864;2024-03-06T02:27:47;7.10;;;4.43;;
48203;SDS011;33994;50.998;5.864;2024-03-06T02:30:50;6.93;;;3.97;;
48203;SDS011;33994;50.998;5.864;2024-03-06T02:33:53;7.28;;;4.45;;
48203;SDS011;33994;50.998;5.864;2024-03-06T02:36:58;5.75;;;4.25;;
48203;SDS011;33994;50.998;5.864;2024-03-06T02:40:01;7.72;;;4.28;;
48203;SDS011;33994;50.998;5.864;2024-03-06T02:43:04;7.70;;;3.95;;
48203;SDS011;33994;50.998;5.864;2024-03-06T02:46:07;8.13;;;3.97;;
48203;SDS011;33994;50.998;5.864;2024-03-06T02:49:11;6.22;;;3.50;;
48203;SDS011;33994;50.998;5.864;2024-03-06T02:52:15;6.90;;;3.72;;
48203;SDS011;33994;50.998;5.864;2024-03-06T02:55:18;8.30;;;4.13;;
48203;SDS011;33994;50.998;5.864;2024-03-06T02:58:21;6.03;;;3.60;;
48203;SDS011;33994;50.998;5.864;2024-03-06T03:01:25;6.13;;;3.20;;
48203;SDS011;33994;50.998;5.864;2024-03-06T03:04:28;6.65;;;3.42;;
48203;SDS011;33994;50.998;5.864;2024-03-06T03:07:32;6.82;;;3.97;;
48203;SDS011;33994;50.998;5.864;2024-03-06T03:10:35;5.90;;;3.65;;
48203;SDS011;33994;50.998;5.864;2024-03-06T03:13:39;8.25;;;4.07;;
48203;SDS011;33994;50.998;5.864;2024-03-06T03:16:42;7.22;;;3.53;;
48203;SDS011;33994;50.998;5.864;2024-03-06T03:19:45;7.03;;;3.90;;
48203;SDS011;33994;50.998;5.864;2024-03-06T03:22:49;7.43;;;3.72;;
48203;SDS011;33994;50.998;5.864;2024-03-06T03:25:52;9.05;;;3.58;;
48203;SDS011;33994;50.998;5.864;2024-03-06T03:28:56;9.07;;;3.67;;
48203;SDS011;33994;50.998;5.864;2024-03-06T03:31:59;10.65;;;3.75;;
48203;SDS011;33994;50.998;5.864;2024-03-06T03:35:02;5.97;;;3.53;;
48203;SDS011;33994;50.998;5.864;2024-03-06T03:38:07;7.03;;;3.30;;
48203;SDS011;33994;50.998;5.864;2024-03-06T03:41:10;5.03;;;3.17;;
48203;SDS011;33994;50.998;5.864;2024-03-06T03:44:14;8.43;;;3.55;;
48203;SDS011;33994;50.998;5.864;2024-03-06T03:47:18;4.82;;;2.95;;
48203;SDS011;33994;50.998;5.864;2024-03-06T03:50:21;6.72;;;3.53;;
48203;SDS011;33994;50.998;5.864;2024-03-06T03:53:26;8.88;;;3.55;;
48203;SDS011;33994;50.998;5.864;2024-03-06T03:56:29;4.75;;;3.08;;
48203;SDS011;33994;50.998;5.864;2024-03-06T03:59:32;4.90;;;3.05;;
48203;SDS011;33994;50.998;5.864;2024-03-06T04:02:35;4.97;;;3.00;;
48203;SDS011;33994;50.998;5.864;2024-03-06T04:05:38;5.88;;;3.00;;
48203;SDS011;33994;50.998;5.864;2024-03-06T04:08:43;5.13;;;3.50;;
48203;SDS011;33994;50.998;5.864;2024-03-06T04:11:46;6.13;;;3.50;;
48203;SDS011;33994;50.998;5.864;2024-03-06T04:14:49;5.40;;;3.13;;
48203;SDS011;33994;50.998;5.864;2024-03-06T04:17:52;7.88;;;3.20;;
48203;SDS011;33994;50.998;5.864;2024-03-06T04:20:56;5.60;;;3.50;;
48203;SDS011;33994;50.998;5.864;2024-03-06T04:24:00;6.43;;;3.05;;
48203;SDS011;33994;50.998;5.864;2024-03-06T04:27:04;5.88;;;3.20;;
48203;SDS011;33994;50.998;5.864;2024-03-06T04:30:07;5.63;;;3.13;;
48203;SDS011;33994;50.998;5.864;2024-03-06T04:33:11;4.45;;;3.40;;
48203;SDS011;33994;50.998;5.864;2024-03-06T04:36:14;7.03;;;3.58;;
48203;SDS011;33994;50.998;5.864;2024-03-06T04:39:19;7.70;;;3.58;;
48203;SDS011;33994;50.998;5.864;2024-03-06T04:42:22;6.05;;;3.60;;
48203;SDS011;33994;50.998;5.864;2024-03-06T04:45:25;5.07;;;3.20;;
48203;SDS011;33994;50.998;5.864;2024-03-06T04:48:28;5.55;;;3.17;;
48203;SDS011;33994;50.998;5.864;2024-03-06T04:51:31;5.72;;;3.28;;
48203;SDS011;33994;50.998;5.864;2024-03-06T04:54:36;6.05;;;3.83;;
48203;SDS011;33994;50.998;5.864;2024-03-06T04:57:39;5.13;;;3.75;;
48203;SDS011;33994;50.998;5.864;2024-03-06T05:00:43;5.20;;;3.13;;
48203;SDS011;33994;50.998;5.864;2024-03-06T05:03:46;5.35;;;3.50;;
48203;SDS011;33994;50.998;5.864;2024-03-06T05:06:49;9.00;;;3.78;;
48203;SDS011;33994;50.998;5.864;2024-03-06T05:09:54;5.07;;;3.30;;
48203;SDS011;33994;50.998;5.864;2024-03-06T05:12:57;7.72;;;4.15;;
48203;SDS011;33994;50.998;5.864;2024-03-06T05:16:00;6.40;;;3.90;;
48203;SDS011;33994;50.998;5.864;2024-03-06T05:19:03;5.53;;;3.60;;
48203;SDS011;33994;50.998;5.864;2024-03-06T05:22:06;5.68;;;3.85;;
48203;SDS011;33994;50.998;5.864;2024-03-06T05:25:11;7.70;;;3.92;;
48203;SDS011;33994;50.998;5.864;2024-03-06T05:28:14;7.30;;;3.95;;
48203;SDS011;33994;50.998;5.864;2024-03-06T05:31:18;8.10;;;3.67;;
48203;SDS011;33994;50.998;5.864;2024-03-06T05:34:22;8.48;;;3.78;;
48203;SDS011;33994;50.998;5.864;2024-03-06T05:37:25;5.47;;;3.53;;
48203;SDS011;33994;50.998;5.864;2024-03-06T05:40:30;4.55;;;3.17;;
48203;SDS011;33994;50.998;5.864;2024-03-06T05:43:33;6.53;;;4.43;;
48203;SDS011;33994;50.998;5.864;2024-03-06T05:46:36;9.02;;;4.35;;
48203;SDS011;33994;50.998;5.864;2024-03-06T05:49:39;7.57;;;3.63;;
48203;SDS011;33994;50.998;5.864;2024-03-06T05:52:43;6.10;;;3.78;;
48203;SDS011;33994;50.998;5.864;2024-03-06T05:55:47;5.35;;;4.53;;
48203;SDS011;33994;50.998;5.864;2024-03-06T05:58:50;6.57;;;4.10;;
48203;SDS011;33994;50.998;5.864;2024-03-06T06:01:54;7.45;;;3.70;;
48203;SDS011;33994;50.998;5.864;2024-03-06T06:04:57;6.85;;;4.00;;
48203;SDS011;33994;50.998;5.864;2024-03-06T06:08:00;5.20;;;3.85;;
48203;SDS011;33994;50.998;5.864;2024-03-06T06:11:04;8.15;;;4.00;;
48203;SDS011;33994;50.998;5.864;2024-03-06T06:14:07;5.57;;;3.75;;
48203;SDS011;33994;50.998;5.864;2024-03-06T06:17:11;7.38;;;4.00;;
48203;SDS011;33994;50.998;5.864;2024-03-06T06:20:14;6.55;;;4.03;;
48203;SDS011;33994;50.998;5.864;2024-03-06T06:23:17;7.25;;;3.70;;
48203;SDS011;33994;50.998;5.864;2024-03-06T06:26:22;7.05;;;4.15;;
48203;SDS011;33994;50.998;5.864;2024-03-06T06:29:25;8.63;;;3.97;;
48203;SDS011;33994;50.998;5.864;2024-03-06T06:32:28;7.68;;;4.28;;
48203;SDS011;33994;50.998;5.864;2024-03-06T06:35:31;8.27;;;4.63;;
48203;SDS011;33994;50.998;5.864;2024-03-06T06:38:35;7.88;;;5.03;;
48203;SDS011;33994;50.998;5.864;2024-03-06T06:41:39;6.07;;;3.60;;
48203;SDS011;33994;50.998;5.864;2024-03-06T06:44:42;5.97;;;3.80;;
48203;SDS011;33994;50.998;5.864;2024-03-06T06:47:46;7.30;;;3.35;;
48203;SDS011;33994;50.998;5.864;2024-03-06T06:50:49;6.45;;;4.00;;
48203;SDS011;33994;50.998;5.864;2024-03-06T06:53:53;5.25;;;3.70;;
48203;SDS011;33994;50.998;5.864;2024-03-06T06:56:57;8.38;;;3.78;;
48203;SDS011;33994;50.998;5.864;2024-03-06T07:00:01;8.73;;;4.30;;
48203;SDS011;33994;50.998;5.864;2024-03-06T07:03:04;7.22;;;4.15;;
48203;SDS011;33994;50.998;5.864;2024-03-06T07:06:07;5.93;;;3.63;;
48203;SDS011;33994;50.998;5.864;2024-03-06T07:09:11;9.45;;;4.78;;
48203;SDS011;33994;50.998;5.864;2024-03-06T07:12:15;5.40;;;3.88;;
48203;SDS011;33994;50.998;5.864;2024-03-06T07:15:19;5.70;;;3.97;;
48203;SDS011;33994;50.998;5.864;2024-03-06T07:18:22;5.57;;;3.58;;
48203;SDS011;33994;50.998;5.864;2024-03-06T07:21:25;7.13;;;3.72;;
48203;SDS011;33994;50.998;5.864;2024-03-06T07:24:28;13.75;;;4.35;;
48203;SDS011;33994;50.998;5.864;2024-03-06T07:27:32;5.40;;;3.30;;
48203;SDS011;33994;50.998;5.864;2024-03-06T07:30:35;10.70;;;3.90;;
48203;SDS011;33994;50.998;5.864;2024-03-06T07:33:38;5.65;;;3.95;;
48203;SDS011;33994;50.998;5.864;2024-03-06T07:36:42;9.07;;;4.53;;
48203;SDS011;33994;50.998;5.864;2024-03-06T07:39:45;6.22;;;3.67;;
48203;SDS011;33994;50.998;5.864;2024-03-06T07:42:49;6.78;;;4.03;;
48203;SDS011;33994;50.998;5.864;2024-03-06T07:45:52;7.40;;;4.10;;
48203;SDS011;33994;50.998;5.864;2024-03-06T07:48:55;7.28;;;4.30;;
48203;SDS011;33994;50.998;5.864;2024-03-06T07:51:59;7.20;;;4.22;;
48203;SDS011;33994;50.998;5.864;2024-03-06T07:55:02;8.85;;;4.38;;
48203;SDS011;33994;50.998;5.864;2024-03-06T07:58:06;6.90;;;3.65;;
48203;SDS011;33994;50.998;5.864;2024-03-06T08:01:09;6.50;;;4.15;;
48203;SDS011;33994;50.998;5.864;2024-03-06T08:04:12;12.60;;;4.20;;
48203;SDS011;33994;50.998;5.864;2024-03-06T08:07:15;5.10;;;3.38;;
48203;SDS011;33994;50.998;5.864;2024-03-06T08:10:19;6.53;;;3.75;;
48203;SDS011;33994;50.998;5.864;2024-03-06T08:13:23;6.35;;;3.50;;
48203;SDS011;33994;50.998;5.864;2024-03-06T08:16:26;5.18;;;3.65;;
48203;SDS011;33994;50.998;5.864;2024-03-06T08:19:29;5.95;;;3.88;;
48203;SDS011;33994;50.998;5.864;2024-03-06T08:22:33;5.60;;;3.65;;
48203;SDS011;33994;50.998;5.864;2024-03-06T08:25:36;8.23;;;3.90;;
48203;SDS011;33994;50.998;5.864;2024-03-06T08:28:40;7.47;;;4.10;;
48203;SDS011;33994;50.998;5.864;2024-03-06T08:31:43;9.40;;;3.50;;
48203;SDS011;33994;50.998;5.864;2024-03-06T08:34:47;6.70;;;3.65;;
48203;SDS011;33994;50.998;5.864;2024-03-06T08:37:50;4.90;;;3.50;;
48203;SDS011;33994;50.998;5.864;2024-03-06T08:40:53;8.73;;;4.05;;
48203;SDS011;33994;50.998;5.864;2024-03-06T08:43:58;5.95;;;3.40;;
48203;SDS011;33994;50.998;5.864;2024-03-06T08:47:01;9.50;;;4.28;;
48203;SDS011;33994;50.998;5.864;2024-03-06T08:50:05;9.27;;;4.38;;
48203;SDS011;33994;50.998;5.864;2024-03-06T08:53:09;6.18;;;3.75;;
48203;SDS011;33994;50.998;5.864;2024-03-06T08:56:12;6.18;;;4.03;;
48203;SDS011;33994;50.998;5.864;2024-03-06T08:59:16;5.97;;;3.65;;
48203;SDS011;33994;50.998;5.864;2024-03-06T09:02:20;6.43;;;3.75;;
48203;SDS011;33994;50.998;5.864;2024-03-06T09:05:23;7.68;;;3.65;;
48203;SDS011;33994;50.998;5.864;2024-03-06T09:08:26;5.88;;;3.88;;
48203;SDS011;33994;50.998;5.864;2024-03-06T09:11:29;5.05;;;3.55;;
48203;SDS011;33994;50.998;5.864;2024-03-06T09:14:34;7.18;;;4.32;;
48203;SDS011;33994;50.998;5.864;2024-03-06T09:17:37;8.70;;;4.40;;
48203;SDS011;33994;50.998;5.864;2024-03-06T09:20:40;7.90;;;3.67;;
48203;SDS011;33994;50.998;5.864;2024-03-06T09:23:44;6.88;;;4.18;;
48203;SDS011;33994;50.998;5.864;2024-03-06T09:26:47;5.75;;;3.65;;
48203;SDS011;33994;50.998;5.864;2024-03-06T09:29:52;6.78;;;3.55;;
48203;SDS011;33994;50.998;5.864;2024-03-06T09:32:55;6.93;;;3.80;;
48203;SDS011;33994;50.998;5.864;2024-03-06T09:35:58;5.20;;;3.65;;
48203;SDS011;33994;50.998;5.864;2024-03-06T09:39:01;4.95;;;3.30;;
48203;SDS011;33994;50.998;5.864;2024-03-06T09:42:06;5.85;;;3.03;;
48203;SDS011;33994;50.998;5.864;2024-03-06T09:45:11;6.22;;;3.33;;
48203;SDS011;33994;50.998;5.864;2024-03-06T09:48:14;7.20;;;3.45;;
48203;SDS011;33994;50.998;5.864;2024-03-06T09:51:19;7.22;;;3.92;;
48203;SDS011;33994;50.998;5.864;2024-03-06T09:54:22;7.00;;;3.72;;
48203;SDS011;33994;50.998;5.864;2024-03-06T09:57:26;7.53;;;4.00;;
48203;SDS011;33994;50.998;5.864;2024-03-06T10:00:30;7.80;;;3.83;;
48203;SDS011;33994;50.998;5.864;2024-03-06T10:03:34;7.75;;;3.78;;
48203;SDS011;33994;50.998;5.864;2024-03-06T10:06:37;8.10;;;3.70;;
48203;SDS011;33994;50.998;5.864;2024-03-06T10:09:40;8.02;;;4.32;;
48203;SDS011;33994;50.998;5.864;2024-03-06T10:12:44;7.70;;;3.83;;
48203;SDS011;33994;50.998;5.864;2024-03-06T10:15:56;8.02;;;3.58;;
48203;SDS011;33994;50.998;5.864;2024-03-06T10:19:07;11.23;;;4.18;;
48203;SDS011;33994;50.998;5.864;2024-03-06T10:22:17;8.55;;;3.60;;
48203;SDS011;33994;50.998;5.864;2024-03-06T10:25:21;6.72;;;3.90;;
48203;SDS011;33994;50.998;5.864;2024-03-06T10:28:25;7.72;;;3.45;;
48203;SDS011;33994;50.998;5.864;2024-03-06T10:31:29;7.20;;;3.80;;
48203;SDS011;33994;50.998;5.864;2024-03-06T10:34:33;7.25;;;3.33;;
48203;SDS011;33994;50.998;5.864;2024-03-06T10:37:36;6.03;;;3.92;;
48203;SDS011;33994;50.998;5.864;2024-03-06T10:40:41;6.32;;;3.47;;
48203;SDS011;33994;50.998;5.864;2024-03-06T10:43:45;7.82;;;3.30;;
48203;SDS011;33994;50.998;5.864;2024-03-06T10:46:57;6.10;;;3.03;;
48203;SDS011;33994;50.998;5.864;2024-03-06T10:50:01;5.47;;;2.65;;
48203;SDS011;33994;50.998;5.864;2024-03-06T10:53:07;5.38;;;3.33;;
48203;SDS011;33994;50.998;5.864;2024-03-06T10:56:11;9.45;;;2.72;;
48203;SDS011;33994;50.998;5.864;2024-03-06T10:59:15;9.85;;;2.25;;
48203;SDS011;33994;50.998;5.864;2024-03-06T11:02:21;4.78;;;2.05;;
48203;SDS011;33994;50.998;5.864;2024-03-06T11:05:25;4.43;;;2.45;;
48203;SDS011;33994;50.998;5.864;2024-03-06T11:08:28;3.83;;;2.15;;
48203;SDS011;33994;50.998;5.864;2024-03-06T11:11:32;3.60;;;2.53;;
48203;SDS011;33994;50.998;5.864;2024-03-06T11:14:36;4.88;;;2.50;;
48203;SDS011;33994;50.998;5.864;2024-03-06T11:17:41;9.88;;;3.00;;
48203;SDS011;33994;50.998;5.864;2024-03-06T11:20:44;5.25;;;2.58;;
48203;SDS011;33994;50.998;5.864;2024-03-06T11:27:16;4.70;;;2.47;;
48203;SDS011;33994;50.998;5.864;2024-03-06T11:30:19;6.15;;;2.60;;
48203;SDS011;33994;50.998;5.864;2024-03-06T11:33:24;6.18;;;3.13;;
48203;SDS011;33994;50.998;5.864;2024-03-06T11:36:30;4.70;;;2.78;;
48203;SDS011;33994;50.998;5.864;2024-03-06T11:39:33;6.57;;;2.92;;
48203;SDS011;33994;50.998;5.864;2024-03-06T11:42:37;7.22;;;2.85;;
48203;SDS011;33994;50.998;5.864;2024-03-06T11:45:43;5.90;;;2.63;;
48203;SDS011;33994;50.998;5.864;2024-03-06T11:48:54;4.57;;;2.63;;
48203;SDS011;33994;50.998;5.864;2024-03-06T11:51:58;2.65;;;2.17;;
48203;SDS011;33994;50.998;5.864;2024-03-06T11:55:03;8.93;;;2.25;;
48203;SDS011;33994;50.998;5.864;2024-03-06T11:58:09;6.93;;;2.70;;
48203;SDS011;33994;50.998;5.864;2024-03-06T12:01:12;7.13;;;3.35;;
48203;SDS011;33994;50.998;5.864;2024-03-06T12:04:16;6.38;;;2.90;;
48203;SDS011;33994;50.998;5.864;2024-03-06T12:07:21;4.88;;;3.63;;
48203;SDS011;33994;50.998;5.864;2024-03-06T12:10:24;7.10;;;3.67;;
48203;SDS011;33994;50.998;5.864;2024-03-06T12:13:28;6.90;;;3.78;;
48203;SDS011;33994;50.998;5.864;2024-03-06T12:16:31;11.52;;;3.92;;
48203;SDS011;33994;50.998;5.864;2024-03-06T12:19:36;5.68;;;3.55;;
48203;SDS011;33994;50.998;5.864;2024-03-06T12:22:43;6.00;;;3.50;;
48203;SDS011;33994;50.998;5.864;2024-03-06T12:25:46;7.10;;;3.70;;
48203;SDS011;33994;50.998;5.864;2024-03-06T12:28:49;8.23;;;3.80;;
48203;SDS011;33994;50.998;5.864;2024-03-06T12:31:53;5.82;;;3.60;;
48203;SDS011;33994;50.998;5.864;2024-03-06T12:34:58;6.13;;;3.30;;
48203;SDS011;33994;50.998;5.864;2024-03-06T12:38:10;5.28;;;2.78;;
48203;SDS011;33994;50.998;5.864;2024-03-06T12:41:14;5.68;;;2.78;;
48203;SDS011;33994;50.998;5.864;2024-03-06T12:44:18;5.88;;;3.33;;
48203;SDS011;33994;50.998;5.864;2024-03-06T12:47:22;7.72;;;3.90;;
48203;SDS011;33994;50.998;5.864;2024-03-06T12:50:27;8.00;;;3.25;;
48203;SDS011;33994;50.998;5.864;2024-03-06T12:53:30;11.07;;;3.78;;
48203;SDS011;33994;50.998;5.864;2024-03-06T12:56:33;7.95;;;4.03;;
48203;SDS011;33994;50.998;5.864;2024-03-06T12:59:36;6.50;;;3.67;;
48203;SDS011;33994;50.998;5.864;2024-03-06T13:02:40;4.93;;;3.33;;
48203;SDS011;33994;50.998;5.864;2024-03-06T13:05:45;6.07;;;3.83;;
48203;SDS011;33994;50.998;5.864;2024-03-06T13:08:48;7.25;;;3.60;;
48203;SDS011;33994;50.998;5.864;2024-03-06T13:11:51;6.43;;;3.45;;
48203;SDS011;33994;50.998;5.864;2024-03-06T13:14:54;5.57;;;3.72;;
48203;SDS011;33994;50.998;5.864;2024-03-06T13:17:57;6.88;;;3.38;;
48203;SDS011;33994;50.998;5.864;2024-03-06T13:21:02;5.50;;;3.45;;
48203;SDS011;33994;50.998;5.864;2024-03-06T13:24:05;5.93;;;3.55;;
48203;SDS011;33994;50.998;5.864;2024-03-06T13:27:08;6.18;;;3.60;;
48203;SDS011;33994;50.998;5.864;2024-03-06T13:30:12;7.53;;;3.67;;
48203;SDS011;33994;50.998;5.864;2024-03-06T13:33:15;7.00;;;3.78;;
48203;SDS011;33994;50.998;5.864;2024-03-06T13:36:19;8.32;;;4.25;;
48203;SDS011;33994;50.998;5.864;2024-03-06T13:39:23;8.77;;;4.40;;
48203;SDS011;33994;50.998;5.864;2024-03-06T13:42:26;8.45;;;4.60;;
48203;SDS011;33994;50.998;5.864;2024-03-06T13:45:30;5.03;;;3.90;;
48203;SDS011;33994;50.998;5.864;2024-03-06T13:48:33;5.20;;;4.07;;
48203;SDS011;33994;50.998;5.864;2024-03-06T13:51:38;8.68;;;4.25;;
48203;SDS011;33994;50.998;5.864;2024-03-06T13:54:41;6.25;;;4.38;;
48203;SDS011;33994;50.998;5.864;2024-03-06T13:57:45;7.07;;;3.53;;
48203;SDS011;33994;50.998;5.864;2024-03-06T14:00:49;7.82;;;4.43;;
48203;SDS011;33994;50.998;5.864;2024-03-06T14:03:52;6.95;;;3.78;;
48203;SDS011;33994;50.998;5.864;2024-03-06T14:06:56;5.63;;;3.80;;
48203;SDS011;33994;50.998;5.864;2024-03-06T14:09:59;6.25;;;3.75;;
48203;SDS011;33994;50.998;5.864;2024-03-06T14:13:03;5.90;;;3.22;;
48203;SDS011;33994;50.998;5.864;2024-03-06T14:16:06;7.22;;;3.45;;
48203;SDS011;33994;50.998;5.864;2024-03-06T14:19:09;4.88;;;3.38;;
48203;SDS011;33994;50.998;5.864;2024-03-06T14:22:13;7.15;;;3.63;;
48203;SDS011;33994;50.998;5.864;2024-03-06T14:25:16;6.43;;;3.42;;
48203;SDS011;33994;50.998;5.864;2024-03-06T14:28:20;5.35;;;3.50;;
48203;SDS011;33994;50.998;5.864;2024-03-06T14:31:23;5.93;;;3.85;;
48203;SDS011;33994;50.998;5.864;2024-03-06T14:34:26;6.63;;;3.47;;
48203;SDS011;33994;50.998;5.864;2024-03-06T14:37:30;6.00;;;2.60;;
48203;SDS011;33994;50.998;5.864;2024-03-06T14:40:33;5.47;;;2.90;;
48203;SDS011;33994;50.998;5.864;2024-03-06T14:43:36;4.63;;;3.38;;
48203;SDS011;33994;50.998;5.864;2024-03-06T14:46:40;5.47;;;2.72;;
48203;SDS011;33994;50.998;5.864;2024-03-06T14:49:44;3.70;;;2.75;;
48203;SDS011;33994;50.998;5.864;2024-03-06T14:52:49;5.47;;;3.35;;
48203;SDS011;33994;50.998;5.864;2024-03-06T14:55:52;4.68;;;3.33;;
48203;SDS011;33994;50.998;5.864;2024-03-06T14:58:55;4.40;;;2.58;;
48203;SDS011;33994;50.998;5.864;2024-03-06T15:01:58;4.53;;;2.70;;
48203;SDS011;33994;50.998;5.864;2024-03-06T15:05:01;5.68;;;2.90;;
48203;SDS011;33994;50.998;5.864;2024-03-06T15:08:06;3.72;;;2.85;;
48203;SDS011;33994;50.998;5.864;2024-03-06T15:11:09;7.60;;;3.65;;
48203;SDS011;33994;50.998;5.864;2024-03-06T15:14:12;3.60;;;2.50;;
48203;SDS011;33994;50.998;5.864;2024-03-06T15:17:15;5.43;;;3.17;;
48203;SDS011;33994;50.998;5.864;2024-03-06T15:20:19;5.57;;;2.78;;
48203;SDS011;33994;50.998;5.864;2024-03-06T15:23:23;5.53;;;3.40;;
48203;SDS011;33994;50.998;5.864;2024-03-06T15:26:26;4.45;;;3.30;;
48203;SDS011;33994;50.998;5.864;2024-03-06T15:29:30;5.88;;;3.30;;
48203;SDS011;33994;50.998;5.864;2024-03-06T15:32:33;6.78;;;3.08;;
48203;SDS011;33994;50.998;5.864;2024-03-06T15:35:36;5.10;;;3.05;;
48203;SDS011;33994;50.998;5.864;2024-03-06T15:38:41;6.45;;;3.53;;
48203;SDS011;33994;50.998;5.864;2024-03-06T15:41:44;8.07;;;3.13;;
48203;SDS011;33994;50.998;5.864;2024-03-06T15:44:47;4.43;;;2.92;;
48203;SDS011;33994;50.998;5.864;2024-03-06T15:47:51;7.03;;;3.40;;
48203;SDS011;33994;50.998;5.864;2024-03-06T15:50:54;4.50;;;3.03;;
48203;SDS011;33994;50.998;5.864;2024-03-06T15:53:59;5.03;;;2.80;;
48203;SDS011;33994;50.998;5.864;2024-03-06T15:57:02;5.82;;;3.42;;
48203;SDS011;33994;50.998;5.864;2024-03-06T16:00:06;5.25;;;3.20;;
48203;SDS011;33994;50.998;5.864;2024-03-06T16:03:10;5.75;;;3.65;;
48203;SDS011;33994;50.998;5.864;2024-03-06T16:06:14;6.93;;;3.28;;
48203;SDS011;33994;50.998;5.864;2024-03-06T16:09:18;5.68;;;3.40;;
48203;SDS011;33994;50.998;5.864;2024-03-06T16:12:21;5.03;;;3.60;;
48203;SDS011;33994;50.998;5.864;2024-03-06T16:15:25;5.22;;;3.17;;
48203;SDS011;33994;50.998;5.864;2024-03-06T16:18:28;4.97;;;2.85;;
48203;SDS011;33994;50.998;5.864;2024-03-06T16:21:31;8.07;;;3.15;;
48203;SDS011;33994;50.998;5.864;2024-03-06T16:24:36;4.30;;;3.05;;
48203;SDS011;33994;50.998;5.864;2024-03-06T16:27:39;7.00;;;3.28;;
48203;SDS011;33994;50.998;5.864;2024-03-06T16:30:42;3.88;;;2.58;;
48203;SDS011;33994;50.998;5.864;2024-03-06T16:33:45;3.45;;;2.65;;
48203;SDS011;33994;50.998;5.864;2024-03-06T16:36:49;4.47;;;2.90;;
48203;SDS011;33994;50.998;5.864;2024-03-06T16:39:53;6.10;;;3.50;;
48203;SDS011;33994;50.998;5.864;2024-03-06T16:42:57;5.22;;;3.63;;
48203;SDS011;33994;50.998;5.864;2024-03-06T16:46:00;9.20;;;3.92;;
48203;SDS011;33994;50.998;5.864;2024-03-06T16:49:04;10.63;;;6.90;;
48203;SDS011;33994;50.998;5.864;2024-03-06T16:52:07;10.75;;;5.55;;
48203;SDS011;33994;50.998;5.864;2024-03-06T16:55:12;9.45;;;5.40;;
48203;SDS011;33994;50.998;5.864;2024-03-06T16:58:15;13.00;;;6.20;;
48203;SDS011;33994;50.998;5.864;2024-03-06T17:01:18;10.88;;;7.25;;
48203;SDS011;33994;50.998;5.864;2024-03-06T17:04:22;11.18;;;6.43;;
48203;SDS011;33994;50.998;5.864;2024-03-06T17:07:25;11.45;;;6.40;;
48203;SDS011;33994;50.998;5.864;2024-03-06T17:10:29;10.60;;;6.55;;
48203;SDS011;33994;50.998;5.864;2024-03-06T17:13:33;9.80;;;6.05;;
48203;SDS011;33994;50.998;5.864;2024-03-06T17:16:37;12.88;;;7.13;;
48203;SDS011;33994;50.998;5.864;2024-03-06T17:19:40;11.07;;;6.22;;
48203;SDS011;33994;50.998;5.864;2024-03-06T17:22:44;12.98;;;7.25;;
48203;SDS011;33994;50.998;5.864;2024-03-06T17:25:48;10.90;;;6.70;;
48203;SDS011;33994;50.998;5.864;2024-03-06T17:28:52;9.07;;;5.82;;
48203;SDS011;33994;50.998;5.864;2024-03-06T17:31:55;8.75;;;5.45;;
48203;SDS011;33994;50.998;5.864;2024-03-06T17:34:58;8.98;;;4.78;;
48203;SDS011;33994;50.998;5.864;2024-03-06T17:38:01;11.65;;;6.28;;
48203;SDS011;33994;50.998;5.864;2024-03-06T17:41:06;9.95;;;6.20;;
48203;SDS011;33994;50.998;5.864;2024-03-06T17:44:09;16.83;;;7.50;;
48203;SDS011;33994;50.998;5.864;2024-03-06T17:47:12;14.75;;;8.95;;
48203;SDS011;33994;50.998;5.864;2024-03-06T17:50:15;18.13;;;7.55;;
48203;SDS011;33994;50.998;5.864;2024-03-06T17:53:19;12.00;;;7.55;;
48203;SDS011;33994;50.998;5.864;2024-03-06T17:56:24;16.55;;;7.30;;
48203;SDS011;33994;50.998;5.864;2024-03-06T17:59:27;15.60;;;8.02;;
48203;SDS011;33994;50.998;5.864;2024-03-06T18:02:30;10.95;;;6.68;;
48203;SDS011;33994;50.998;5.864;2024-03-06T18:05:34;13.63;;;6.63;;
48203;SDS011;33994;50.998;5.864;2024-03-06T18:08:37;10.65;;;7.10;;
48203;SDS011;33994;50.998;5.864;2024-03-06T18:11:41;13.73;;;7.18;;
48203;SDS011;33994;50.998;5.864;2024-03-06T18:14:44;14.43;;;8.13;;
48203;SDS011;33994;50.998;5.864;2024-03-06T18:17:47;13.32;;;9.23;;
48203;SDS011;33994;50.998;5.864;2024-03-06T18:20:50;16.70;;;9.05;;
48203;SDS011;33994;50.998;5.864;2024-03-06T18:23:54;14.20;;;9.32;;
48203;SDS011;33994;50.998;5.864;2024-03-06T18:26:58;18.40;;;10.60;;